createdAt,value
2022-12-13T00:01:47.268Z,94.46
2022-12-13T00:04:14.357Z,94.85
2022-12-13T00:06:41.266Z,94.61
2022-12-13T00:09:08.463Z,94.34
2022-12-13T00:11:35.593Z,94.70
2022-12-13T00:14:02.562Z,95.16
2022-12-13T00:16:29.299Z,94.89
2022-12-13T00:18:58.333Z,94.97
2022-12-13T00:21:28.374Z,95.68
2022-12-13T00:23:55.800Z,95.71
2022-12-13T00:26:26.425Z,96.20
2022-12-13T00:28:54.282Z,95.92
2022-12-13T00:34:10.503Z,95.83
2022-12-13T00:36:37.202Z,95.90
2022-12-13T00:39:03.969Z,95.84
2022-12-13T00:41:33.117Z,96.40
2022-12-13T00:44:00.917Z,96.57
2022-12-13T00:46:29.106Z,96.36
2022-12-13T00:48:58.408Z,96.94
2022-12-13T00:51:26.974Z,96.22
2022-12-13T00:53:54.026Z,96.42
2022-12-13T00:56:23.648Z,96.79
2022-12-13T00:58:52.426Z,96.93
2022-12-13T01:01:25.238Z,96.42
2022-12-13T01:03:54.544Z,96.16
2022-12-13T01:06:28.407Z,96.16
2022-12-13T01:08:56.493Z,96.42
2022-12-13T01:11:23.728Z,97.46
2022-12-13T01:13:50.527Z,97.23
2022-12-13T01:16:18.846Z,96.38
2022-12-13T01:18:46.052Z,97.00
2022-12-13T01:21:18.387Z,97.33
2022-12-13T01:23:45.759Z,97.06
2022-12-13T01:26:17.704Z,96.65
2022-12-13T01:28:44.601Z,96.82
2022-12-13T01:31:14.850Z,96.57
2022-12-13T01:33:42.245Z,97.08
2022-12-13T01:36:13.921Z,97.37
2022-12-13T01:38:40.975Z,97.24
2022-12-13T01:41:09.002Z,96.80
2022-12-13T01:43:44.896Z,97.29
2022-12-13T01:46:13.562Z,97.43
2022-12-13T01:48:54.609Z,97.22
2022-12-13T01:51:27.769Z,97.49
2022-12-13T01:53:59.124Z,97.43
2022-12-13T01:56:33.925Z,97.58
2022-12-13T01:59:03.083Z,97.38
2022-12-13T02:01:30.502Z,98.07
2022-12-13T02:03:57.291Z,97.30
2022-12-13T02:06:33.039Z,97.74
2022-12-13T02:09:01.481Z,97.84
2022-12-13T02:11:28.899Z,97.11
2022-12-13T02:13:55.668Z,97.50
2022-12-13T02:16:37.229Z,97.94
2022-12-13T02:19:54.960Z,97.18
2022-12-13T02:22:39.699Z,98.00
2022-12-13T02:25:40.568Z,98.17
2022-12-13T02:28:31.474Z,97.18
2022-12-13T02:31:47.053Z,96.82
2022-12-13T02:34:16.554Z,98.12
2022-12-13T02:37:01.451Z,97.94
2022-12-13T02:39:36.252Z,97.75
2022-12-13T02:42:21.434Z,97.90
2022-12-13T02:45:05.650Z,97.75
2022-12-13T02:47:34.375Z,98.04
2022-12-13T02:50:06.608Z,97.79
2022-12-13T02:52:33.924Z,97.77
2022-12-13T02:55:02.566Z,97.99
2022-12-13T02:57:33.819Z,97.40
2022-12-13T03:00:14.379Z,97.53
2022-12-13T03:03:19.264Z,97.60
2022-12-13T03:06:21.786Z,98.34
2022-12-13T03:09:07.921Z,97.78
2022-12-13T03:12:35.503Z,97.43
2022-12-13T03:15:35.979Z,97.85
2022-12-13T03:18:19.662Z,97.80
2022-12-13T03:21:01.300Z,97.70
2022-12-13T03:23:28.456Z,97.77
2022-12-13T03:25:59.041Z,97.43
2022-12-13T03:28:25.995Z,97.91
2022-12-13T03:30:52.733Z,98.19
2022-12-13T03:33:19.426Z,97.97
2022-12-13T03:35:46.620Z,97.89
2022-12-13T03:38:22.214Z,97.71
2022-12-13T03:40:53.579Z,98.11
2022-12-13T03:43:22.477Z,97.41
2022-12-13T03:45:51.198Z,97.33
2022-12-13T03:48:22.675Z,97.72
2022-12-13T03:50:52.031Z,97.53
2022-12-13T03:53:22.442Z,97.62
2022-12-13T03:55:58.798Z,97.71
2022-12-13T03:58:35.158Z,97.76
2022-12-13T04:01:06.553Z,97.09
2022-12-13T04:03:33.617Z,97.53
2022-12-13T04:06:00.283Z,97.05
2022-12-13T04:08:26.960Z,97.21
2022-12-13T04:10:53.753Z,97.32
2022-12-13T04:13:32.853Z,97.87
2022-12-13T04:16:00.339Z,97.49
2022-12-13T04:18:27.064Z,97.45
2022-12-13T04:20:53.813Z,97.23
2022-12-13T04:23:20.498Z,97.72
2022-12-13T04:25:47.318Z,97.06
2022-12-13T04:28:22.389Z,97.38
2022-12-13T04:30:52.807Z,97.88
2022-12-13T04:33:24.275Z,97.46
2022-12-13T04:35:52.117Z,97.14
2022-12-13T04:38:19.339Z,97.86
2022-12-13T04:40:46.514Z,97.83
2022-12-13T04:43:13.225Z,97.21
2022-12-13T04:45:40.107Z,97.23
2022-12-13T04:48:07.652Z,97.18
2022-12-13T04:50:35.232Z,97.54
2022-12-13T04:53:01.875Z,97.29
2022-12-13T04:55:28.634Z,96.83
2022-12-13T04:57:55.267Z,97.66
2022-12-13T05:00:24.896Z,97.03
2022-12-13T05:02:51.741Z,97.28
2022-12-13T05:05:19.050Z,97.28
2022-12-13T05:07:46.084Z,97.36
2022-12-13T05:10:13.997Z,97.29
2022-12-13T05:13:01.047Z,97.06
2022-12-13T05:15:30.391Z,96.37
2022-12-13T05:18:10.049Z,96.89
2022-12-13T05:20:38.618Z,97.31
2022-12-13T05:23:05.432Z,96.90
2022-12-13T05:25:32.954Z,96.98
2022-12-13T05:27:59.886Z,97.38
2022-12-13T05:30:26.552Z,96.26
2022-12-13T05:32:53.208Z,96.47
2022-12-13T05:35:22.660Z,96.28
2022-12-13T05:37:55.079Z,96.84
2022-12-13T05:40:32.564Z,97.70
2022-12-13T05:43:01.169Z,96.49
2022-12-13T05:45:29.246Z,96.42
2022-12-13T05:47:56.027Z,96.55
2022-12-13T05:50:22.695Z,96.56
2022-12-13T05:52:49.382Z,96.94
2022-12-13T05:55:16.376Z,96.83
2022-12-13T05:57:50.379Z,97.15
2022-12-13T06:00:29.888Z,96.66
2022-12-13T06:03:01.097Z,96.54
2022-12-13T06:05:29.602Z,96.21
2022-12-13T06:08:01.635Z,97.28
2022-12-13T06:10:34.865Z,96.60
2022-12-13T06:13:22.177Z,96.17
2022-12-13T06:15:52.865Z,97.07
2022-12-13T06:18:30.285Z,96.79
2022-12-13T06:21:01.951Z,97.28
2022-12-13T06:23:30.915Z,96.72
2022-12-13T06:25:58.127Z,96.71
2022-12-13T06:28:24.840Z,96.11
2022-12-13T06:30:52.594Z,96.33
2022-12-13T06:33:23.689Z,96.13
2022-12-13T06:35:52.763Z,95.97
2022-12-13T06:38:31.086Z,95.92
2022-12-13T06:41:16.871Z,95.68
2022-12-13T06:43:45.108Z,96.09
2022-12-13T06:46:12.291Z,95.77
2022-12-13T06:48:40.872Z,95.75
2022-12-13T06:51:08.748Z,95.77
2022-12-13T06:53:37.811Z,95.94
2022-12-13T06:56:11.024Z,96.03
2022-12-13T06:58:45.268Z,96.15
2022-12-13T07:01:23.940Z,95.72
2022-12-13T07:03:54.483Z,95.90
2022-12-13T07:06:22.427Z,95.99
2022-12-13T07:08:55.005Z,95.84
2022-12-13T07:11:24.739Z,95.48
2022-12-13T07:13:52.325Z,95.94
2022-12-13T07:16:20.110Z,96.20
2022-12-13T07:18:46.925Z,95.49
2022-12-13T07:21:22.390Z,96.00
2022-12-13T07:23:55.011Z,95.41
2022-12-13T07:26:22.673Z,95.19
2022-12-13T07:28:54.766Z,95.48
2022-12-13T07:31:23.007Z,96.04
2022-12-13T07:33:50.093Z,95.97
2022-12-13T07:36:19.892Z,95.26
2022-12-13T07:38:55.136Z,95.57
2022-12-13T07:41:23.963Z,95.33
2022-12-13T07:43:55.373Z,95.74
2022-12-13T07:46:32.373Z,96.14
2022-12-13T07:49:04.895Z,95.63
2022-12-13T07:51:36.127Z,95.29
2022-12-13T07:54:06.859Z,95.65
2022-12-13T07:56:34.352Z,95.86
2022-12-13T07:59:01.021Z,95.78
2022-12-13T08:01:27.688Z,95.75
2022-12-13T08:03:56.777Z,95.75
2022-12-13T08:06:23.564Z,96.33
2022-12-13T08:08:51.310Z,96.07
2022-12-13T08:11:18.101Z,96.23
2022-12-13T08:13:44.945Z,95.90
2022-12-13T08:16:27.207Z,95.86
2022-12-13T08:19:02.913Z,96.50
2022-12-13T08:21:55.793Z,95.59
2022-12-13T08:24:25.948Z,95.49
2022-12-13T08:26:54.772Z,96.00
2022-12-13T08:29:22.805Z,95.39
2022-12-13T08:32:02.453Z,94.94
2022-12-13T08:34:29.398Z,94.53
2022-12-13T08:37:01.248Z,94.11
2022-12-13T08:39:35.683Z,94.25
2022-12-13T08:42:18.814Z,94.18
2022-12-13T08:44:51.089Z,93.25
2022-12-13T08:47:24.605Z,93.38
2022-12-13T08:49:54.003Z,93.06
2022-12-13T08:52:24.756Z,93.79
2022-12-13T08:54:55.019Z,92.96
2022-12-13T08:57:22.632Z,92.95
2022-12-13T08:59:49.428Z,92.85
2022-12-13T09:02:16.818Z,93.62
2022-12-13T09:04:43.780Z,93.13
2022-12-13T09:07:10.413Z,93.15
2022-12-13T09:09:37.506Z,92.68
2022-12-13T09:12:10.659Z,92.72
2022-12-13T09:14:45.689Z,93.43
2022-12-13T09:17:24.204Z,92.94
2022-12-13T09:19:57.947Z,93.12
2022-12-13T09:22:33.741Z,92.60
2022-12-13T09:25:02.347Z,93.32
2022-12-13T09:27:30.621Z,92.65
2022-12-13T09:29:57.656Z,92.79
2022-12-13T09:32:25.697Z,92.90
2022-12-13T09:34:52.914Z,92.26
2022-12-13T09:37:23.232Z,92.01
2022-12-13T09:39:54.837Z,92.75
2022-12-13T09:42:30.471Z,92.12
2022-12-13T09:45:22.526Z,92.23
2022-12-13T09:47:52.511Z,91.99
2022-12-13T09:50:38.709Z,91.82
2022-12-13T09:53:12.131Z,92.27
2022-12-13T09:55:55.050Z,91.87
2022-12-13T09:58:45.361Z,92.18
2022-12-13T10:01:12.693Z,90.03
2022-12-13T10:03:44.402Z,89.93
2022-12-13T10:06:23.415Z,88.42
2022-12-13T10:08:58.784Z,87.69
2022-12-13T10:11:32.473Z,88.22
2022-12-13T10:14:14.558Z,88.83
2022-12-13T10:16:46.844Z,88.52
2022-12-13T10:19:32.348Z,89.26
2022-12-13T10:22:02.650Z,89.75
2022-12-13T10:24:52.455Z,90.47
2022-12-13T10:27:27.265Z,89.76
2022-12-13T10:29:59.933Z,90.11
2022-12-13T10:32:27.204Z,90.08
2022-12-13T10:34:57.226Z,90.08
2022-12-13T10:37:23.891Z,90.03
2022-12-13T10:39:50.804Z,90.20
2022-12-13T10:42:24.314Z,90.04
2022-12-13T10:45:11.077Z,89.92
2022-12-13T10:47:38.028Z,86.84
2022-12-13T10:50:05.241Z,82.14
2022-12-13T10:52:35.149Z,80.26
2022-12-13T10:55:32.576Z,77.15
2022-12-13T10:58:09.262Z,74.50
2022-12-13T11:00:38.980Z,73.08
2022-12-13T11:03:07.012Z,72.80
2022-12-13T11:05:35.985Z,72.04
2022-12-13T11:08:22.313Z,70.79
2022-12-13T11:11:03.802Z,69.38
2022-12-13T11:13:38.716Z,68.51
2022-12-13T11:16:27.363Z,65.63
2022-12-13T11:18:58.167Z,65.84
2022-12-13T11:21:27.019Z,64.12
2022-12-13T11:24:01.917Z,63.43
2022-12-13T11:26:32.679Z,62.58
2022-12-13T11:29:05.292Z,60.36
2022-12-13T11:31:47.066Z,60.06
2022-12-13T11:34:33.025Z,60.67
2022-12-13T11:37:22.576Z,59.08
2022-12-13T11:40:03.359Z,59.20
2022-12-13T11:42:38.582Z,57.90
2022-12-13T11:45:23.173Z,56.05
2022-12-13T11:48:03.678Z,54.17
2022-12-13T11:50:39.408Z,53.26
2022-12-13T11:53:32.646Z,52.63
2022-12-13T11:55:59.406Z,52.45
2022-12-13T11:59:02.957Z,49.62
2022-12-13T12:01:39.234Z,47.64
2022-12-13T12:04:30.451Z,48.42
2022-12-13T12:07:33.513Z,48.51
2022-12-13T12:10:19.424Z,47.48
2022-12-13T12:12:51.474Z,45.45
2022-12-13T12:15:26.754Z,44.88
2022-12-13T12:17:55.882Z,43.90
2022-12-13T12:20:40.149Z,43.06
2022-12-13T12:23:24.190Z,41.94
2022-12-13T12:26:04.650Z,41.81
2022-12-13T12:29:11.939Z,41.26
2022-12-13T12:31:54.201Z,41.46
2022-12-13T12:34:34.910Z,40.93
2022-12-13T12:37:16.920Z,41.30
2022-12-13T12:40:52.217Z,40.25
2022-12-13T12:43:33.772Z,39.87
2022-12-13T12:46:52.275Z,38.53
2022-12-13T12:50:05.241Z,39.35
2022-12-13T12:52:38.061Z,39.11
2022-12-13T12:55:21.152Z,40.12
2022-12-13T12:58:15.955Z,40.23
2022-12-13T13:01:04.407Z,39.86
2022-12-13T13:03:36.640Z,41.49
2022-12-13T13:06:24.386Z,43.21
2022-12-13T13:09:00.012Z,43.49
2022-12-13T13:11:30.005Z,44.64
2022-12-13T13:14:04.566Z,47.85
2022-12-13T13:16:35.621Z,52.78
2022-12-13T13:19:31.542Z,56.17
2022-12-13T13:22:02.034Z,59.20
2022-12-13T13:24:35.331Z,61.24
2022-12-13T13:27:10.782Z,63.38
2022-12-13T13:29:43.614Z,64.90
2022-12-13T13:32:28.647Z,65.98
2022-12-13T13:35:31.338Z,67.39
2022-12-13T13:38:00.796Z,68.80
2022-12-13T13:40:38.886Z,69.51
2022-12-13T13:43:05.478Z,70.02
2022-12-13T13:45:57.522Z,71.17
2022-12-13T13:48:42.507Z,71.76
2022-12-13T13:52:16.861Z,72.29
2022-12-13T13:55:00.996Z,73.59
2022-12-13T13:58:09.269Z,74.23
2022-12-13T14:01:17.274Z,75.02
2022-12-13T14:03:52.920Z,75.36
2022-12-13T14:06:53.326Z,76.04
2022-12-13T14:10:06.487Z,76.64
2022-12-13T14:12:57.458Z,77.38
2022-12-13T14:15:58.108Z,77.86
2022-12-13T14:18:42.778Z,78.29
2022-12-13T14:21:21.039Z,79.41
2022-12-13T14:24:21.448Z,79.83
2022-12-13T14:27:26.770Z,80.39
2022-12-13T14:29:59.307Z,80.88
2022-12-13T14:32:33.027Z,81.21
2022-12-13T14:35:26.249Z,82.17
2022-12-13T14:38:08.296Z,82.14
2022-12-13T14:40:38.277Z,82.63
2022-12-13T14:43:06.410Z,83.44
2022-12-13T14:45:37.855Z,83.15
2022-12-13T14:48:28.652Z,83.84
2022-12-13T14:50:57.030Z,83.87
2022-12-13T14:53:30.806Z,84.21
2022-12-13T14:56:28.267Z,84.64
2022-12-13T14:59:12.182Z,85.11
2022-12-13T15:01:39.497Z,85.31
2022-12-13T15:04:38.006Z,85.35
2022-12-13T15:07:25.314Z,86.67
2022-12-13T15:09:57.225Z,86.41
2022-12-13T15:12:26.016Z,86.64
2022-12-13T15:15:01.474Z,86.35
2022-12-13T15:17:28.371Z,86.27
2022-12-13T15:19:55.557Z,87.06
2022-12-13T15:22:22.326Z,87.14
2022-12-13T15:24:58.177Z,87.17
2022-12-13T15:27:26.078Z,87.50
2022-12-13T15:29:54.473Z,87.38
2022-12-13T15:32:23.449Z,87.93
2022-12-13T15:34:51.667Z,87.94
2022-12-13T15:37:33.595Z,88.24
2022-12-13T15:40:07.309Z,88.51
2022-12-13T15:42:37.081Z,88.74
2022-12-13T15:45:06.933Z,88.37
2022-12-13T15:47:33.852Z,88.36
2022-12-13T15:50:06.564Z,88.95
2022-12-13T15:52:37.376Z,89.15
2022-12-13T15:55:07.921Z,88.98
2022-12-13T15:57:50.552Z,89.09
2022-12-13T16:00:17.384Z,89.40
2022-12-13T16:02:57.021Z,89.67
2022-12-13T16:05:27.120Z,89.99
2022-12-13T16:07:56.860Z,90.17
2022-12-13T16:10:25.052Z,89.59
2022-12-13T16:12:59.122Z,90.17
2022-12-13T16:15:31.848Z,90.31
2022-12-13T16:18:26.619Z,90.71
2022-12-13T16:20:54.436Z,90.31
2022-12-13T16:23:27.844Z,90.50
2022-12-13T16:25:55.259Z,91.21
2022-12-13T16:28:26.030Z,90.75
2022-12-13T16:30:53.039Z,90.28
2022-12-13T16:33:26.841Z,90.92
2022-12-13T16:35:55.842Z,90.43
2022-12-13T16:38:26.476Z,90.40
2022-12-13T16:40:55.768Z,90.30
2022-12-13T16:43:32.781Z,90.36
2022-12-13T16:47:10.647Z,90.44
2022-12-13T16:48:51.651Z,90.76
2022-12-13T16:51:18.486Z,90.59
2022-12-13T16:53:45.629Z,90.51
2022-12-13T16:56:16.669Z,90.54
2022-12-13T16:58:49.704Z,90.69
2022-12-13T17:01:20.201Z,90.90
2022-12-13T17:03:47.563Z,91.08
2022-12-13T17:06:16.535Z,90.58
2022-12-13T17:08:43.286Z,90.81
2022-12-13T17:11:14.658Z,91.57
2022-12-13T17:13:45.126Z,91.23
2022-12-13T17:16:11.965Z,91.34
2022-12-13T17:18:40.005Z,91.23
2022-12-13T17:21:08.339Z,91.70
2022-12-13T17:23:35.017Z,91.28
2022-12-13T17:26:11.713Z,91.68
2022-12-13T17:28:38.409Z,91.23
2022-12-13T17:31:07.636Z,91.72
2022-12-13T17:33:35.349Z,92.08
2022-12-13T17:36:03.649Z,91.69
2022-12-13T17:38:30.634Z,91.76
2022-12-13T17:40:57.746Z,91.92
2022-12-13T17:43:34.245Z,91.79
2022-12-13T17:46:07.950Z,91.40
2022-12-13T17:48:40.359Z,91.61
2022-12-13T17:51:09.239Z,92.26
2022-12-13T17:53:38.232Z,91.93
2022-12-13T17:56:07.853Z,92.17
2022-12-13T17:58:35.109Z,91.88
2022-12-13T18:01:11.767Z,92.08
2022-12-13T18:03:38.702Z,92.25
2022-12-13T18:06:07.236Z,92.04
2022-12-13T18:08:39.101Z,92.20
2022-12-13T18:13:54.781Z,92.69
2022-12-13T18:16:24.005Z,91.70
2022-12-13T18:18:56.157Z,91.45
2022-12-13T18:21:33.098Z,92.28
2022-12-13T18:24:00.276Z,91.55
2022-12-13T18:26:27.084Z,92.70
2022-12-13T18:28:53.832Z,92.63
2022-12-13T18:31:23.605Z,92.75
2022-12-13T18:33:52.804Z,92.60
2022-12-13T18:36:21.626Z,92.01
2022-12-13T18:38:48.644Z,91.88
2022-12-13T18:41:18.480Z,91.92
2022-12-13T18:43:46.073Z,92.31
2022-12-13T18:46:14.785Z,92.04
2022-12-13T18:48:42.503Z,91.93
2022-12-13T18:51:10.667Z,91.88
2022-12-13T18:53:39.073Z,92.06
2022-12-13T18:56:17.785Z,91.75
2022-12-13T18:58:47.158Z,91.85
2022-12-13T19:01:15.916Z,92.07
2022-12-13T19:03:44.710Z,92.73
2022-12-13T19:06:16.951Z,92.55
2022-12-13T19:08:43.887Z,92.45
2022-12-13T19:11:11.083Z,92.29
2022-12-13T19:13:37.866Z,92.39
2022-12-13T19:16:07.975Z,92.15
2022-12-13T19:18:35.891Z,92.15
2022-12-13T19:21:02.770Z,92.36
2022-12-13T19:23:29.839Z,92.75
2022-12-13T19:25:56.753Z,92.78
2022-12-13T19:28:23.598Z,92.35
2022-12-13T19:30:50.352Z,92.03
2022-12-13T19:33:17.544Z,92.10
2022-12-13T19:35:46.751Z,91.70
2022-12-13T19:38:13.948Z,91.68
2022-12-13T19:40:41.938Z,92.44
2022-12-13T19:43:10.006Z,92.24
2022-12-13T19:45:36.861Z,91.46
2022-12-13T19:48:03.800Z,92.04
2022-12-13T19:50:30.695Z,92.98
2022-12-13T19:52:57.580Z,92.01
2022-12-13T19:55:24.538Z,92.24
2022-12-13T19:57:51.323Z,91.69
2022-12-13T20:00:18.057Z,91.78
2022-12-13T20:02:44.996Z,91.69
2022-12-13T20:05:13.043Z,91.57
2022-12-13T20:07:39.839Z,91.72
2022-12-13T20:10:07.491Z,91.78
2022-12-13T20:12:38.875Z,91.51
2022-12-13T20:15:08.232Z,91.63
2022-12-13T20:17:35.574Z,92.06
2022-12-13T20:20:02.813Z,92.14
2022-12-13T20:22:29.637Z,91.45
2022-12-13T20:24:56.685Z,91.69
2022-12-13T20:27:23.516Z,92.08
2022-12-13T20:29:53.914Z,91.90
2022-12-13T20:32:28.883Z,91.18
2022-12-13T20:34:56.520Z,91.17
2022-12-13T20:37:26.145Z,91.39
2022-12-13T20:42:36.717Z,91.69
2022-12-13T20:45:06.462Z,91.43
2022-12-13T20:47:37.697Z,91.24
2022-12-13T20:50:05.398Z,91.46
2022-12-13T20:52:32.139Z,92.36
2022-12-13T20:55:00.453Z,91.82
2022-12-13T20:57:28.984Z,91.00
2022-12-13T21:03:36.472Z,91.36
2022-12-13T21:06:03.255Z,91.36
2022-12-13T21:08:48.410Z,91.74
2022-12-13T21:11:24.636Z,91.23
2022-12-13T21:14:08.219Z,91.20
2022-12-13T21:16:39.096Z,91.17
2022-12-13T21:19:08.709Z,90.26
2022-12-13T21:21:35.858Z,90.81
2022-12-13T21:24:04.093Z,90.65
2022-12-13T21:26:35.397Z,91.17
2022-12-13T21:29:05.512Z,91.02
2022-12-13T21:31:32.591Z,90.47
2022-12-13T21:34:00.398Z,90.69
2022-12-13T21:36:32.767Z,90.48
2022-12-13T21:39:24.430Z,90.70
2022-12-13T21:41:52.237Z,90.17
2022-12-13T21:44:19.873Z,89.70
2022-12-13T21:49:34.578Z,90.19
2022-12-13T21:52:01.430Z,90.19
2022-12-13T21:54:28.172Z,90.12
2022-12-13T21:57:14.099Z,89.36
2022-12-13T21:59:40.706Z,89.89
2022-12-13T22:02:13.073Z,90.10
2022-12-13T22:04:43.649Z,89.99
2022-12-13T22:07:15.667Z,90.34
2022-12-13T22:09:42.765Z,90.48
2022-12-13T22:12:17.542Z,89.81
2022-12-13T22:14:44.956Z,89.82
2022-12-13T22:17:11.889Z,89.96
2022-12-13T22:19:38.802Z,89.31
2022-12-13T22:22:05.685Z,89.29
2022-12-13T22:24:32.838Z,89.61
2022-12-13T22:26:59.849Z,89.68
2022-12-13T22:29:26.619Z,89.22
2022-12-13T22:31:53.300Z,89.52
2022-12-13T22:34:20.115Z,89.68
2022-12-13T22:36:46.842Z,89.78
2022-12-13T22:39:22.229Z,89.23
2022-12-13T22:41:49.928Z,89.40
2022-12-13T22:44:18.327Z,89.22
2022-12-13T22:46:45.282Z,89.79
2022-12-13T23:32:23.654Z,89.03
2022-12-13T23:34:50.712Z,88.31
2022-12-13T23:37:17.969Z,88.32
2022-12-13T23:39:44.863Z,88.67
2022-12-13T23:42:11.831Z,88.85
2022-12-13T23:44:38.701Z,88.58
2022-12-13T23:47:05.581Z,88.23
2022-12-13T23:49:32.595Z,88.59
2022-12-13T23:51:59.444Z,88.58
2022-12-13T23:54:26.247Z,88.08
2022-12-13T23:56:53.146Z,88.34
2022-12-13T23:59:20.306Z,87.50
